Time;durP1;ratioP1;P1;durP2;ratioP2;P2;SDS_P1;SDS_P2;PMS_P1;PMS_P2;Temp;Humidity;BMP_temperature;BMP_pressure;BME280_temperature;BME280_humidity;BME280_pressure;Samples;Min_cycle;Max_cycle;Signal;HPM_P1;HPM_P2
2023/02/01 06:23:16;;;;;;;;;;;;;;;;;;5292812;23;19923;-96
2023/02/01 06:25:42;;;;;;;;;;;;;;;;;;4943744;29;19923;-90
2023/02/01 06:28:13;;;;;;;;;;;;;;;;;;5010453;23;20018;-96
2023/02/01 06:30:45;;;;;;;;;;;;;;;;;;4963083;28;19909;-95
2023/02/01 06:33:28;;;;;;;;;;;;;;;;;;5054074;23;19906;-94
2023/02/01 06:36:15;;;;;;;;;;;;;;;;;;4915289;29;19930;-91
2023/02/01 06:38:42;;;;;;;;;;;;;;;;;;4907118;29;19919;-95
2023/02/01 06:41:08;;;;;;;;;;;;;;;;;;4952306;23;20381;-92
2023/02/01 06:43:34;;;;;;;;;;;;;;;;;;4925357;29;19926;-96
2023/02/01 06:46:03;;;;;;;;;;;;;;;;;;4924208;29;19919;-96
2023/02/01 06:48:28;;;;;;;;;;;;;;;;;;4925341;29;19914;-96
2023/02/01 06:50:53;;;;;;;;;;;;;;;;;;4926914;29;20424;-96
2023/02/01 06:53:19;;;;;;;;;;;;;;;;;;4928636;29;19954;-96
2023/02/01 06:55:54;;;;;;;;;;;;;;;;;;4927109;29;19921;-96
2023/02/01 06:58:20;;;;;;;;;;;;;;;;;;4927051;29;19925;-92
2023/02/01 07:00:45;;;;;;;;;;;;;;;;;;4927741;29;19914;-94
2023/02/01 07:03:11;;;;;;;;;;;;;;;;;;4923849;29;19946;-96
2023/02/01 07:05:36;;;;;;;;;;;;;;;;;;4924563;29;19914;-95
2023/02/01 07:08:01;;;;;;;;;;;;;;;;;;4924437;29;19922;-96
2023/02/01 10:33:18;;;;;;;;;;;;;;;;;;5055064;23;20365;-91
2023/02/01 10:35:44;;;;;;;;;;;;;;;;;;4935895;29;19922;-93
2023/02/01 10:38:16;;;;;;;;;;;;;;;;;;4940972;29;20009;-92
2023/02/01 10:40:41;;;;;;;;;;;;;;;;;;4937654;29;19914;-91
2023/02/01 10:43:08;;;;;;;;;;;;;;;;;;4939302;29;20385;-91
2023/02/01 10:45:34;;;;;;;;;;;;;;;;;;4937767;29;19918;-91
2023/02/01 10:48:00;;;;;;;;;;;;;;;;;;4937822;29;20058;-91
2023/02/01 10:50:26;;;;;;;;;;;;;;;;;;4936029;29;19954;-92
2023/02/01 10:52:54;;;;;;;;;;;;;;;;;;4936931;29;20016;-92
2023/02/01 10:55:31;;;;;;;;;;;;;;;;;;4935938;29;20062;-92
2023/02/01 10:57:58;;;;;;;;;;;;;;;;;;4936326;29;19937;-93
2023/02/01 11:00:24;;;;;;;;;;;;;;;;;;4936565;29;19919;-92
2023/02/01 11:02:50;;;;;;;;;;;;;;;;;;4936392;29;20070;-93
2023/02/01 11:05:17;;;;;;;;;;;;;;;;;;4936380;29;19925;-93
2023/02/01 11:07:48;;;;;;;;;;;;;;;;;;4935946;29;19970;-94
2023/02/01 11:10:37;;;;;;;;;;;;;;;;;;4937005;29;20354;-93
2023/02/01 11:13:03;;;;;;;;;;;;;;;;;;4935916;29;19915;-93
2023/02/01 11:15:28;;;;;;;;;;;;;;;;;;4938510;29;19915;-92
2023/02/01 11:17:58;;;;;;;;;;;;;;;;;;4939488;29;19918;-92
2023/02/01 11:20:37;;;;;;;;;;;;;;;;;;4939453;29;19915;-94
2023/02/01 11:23:03;;;;;;;;;;;;;;;;;;4939535;29;20318;-92
2023/02/01 11:25:29;;;;;;;;;;;;;;;;;;4940001;29;19915;-92
2023/02/01 11:27:56;;;;;;;;;;;;;;;;;;4939606;29;19949;-93
2023/02/01 11:30:40;;;;;;;;;;;;;;;;;;4939169;29;19957;-93
2023/02/01 11:33:05;;;;;;;;;;;;;;;;;;4938981;29;19977;-92
2023/02/01 11:35:31;;;;;;;;;;;;;;;;;;4940647;29;20369;-92
2023/02/01 11:37:58;;;;;;;;;;;;;;;;;;4940213;29;20373;-94
2023/02/01 11:40:34;;;;;;;;;;;;;;;;;;4940147;29;19914;-95
2023/02/01 11:43:07;;;;;;;;;;;;;;;;;;4940968;29;19951;-95
2023/02/01 11:45:37;;;;;;;;;;;;;;;;;;4938584;29;19911;-91
2023/02/01 11:48:09;;;;;;;;;;;;;;;;;;4945034;29;19914;-91
2023/02/01 11:50:49;;;;;;;;;;;;;;;;;;4939609;29;19921;-95
2023/02/01 11:53:17;;;;;;;;;;;;;;;;;;4943187;29;19921;-93
2023/02/01 11:55:53;;;;;;;;;;;;;;;;;;4939663;29;19910;-94
2023/02/01 11:58:19;;;;;;;;;;;;;;;;;;4938880;29;20001;-93
2023/02/01 12:00:47;;;;;;;;;;;;;;;;;;4937780;29;19961;-84
2023/02/01 12:03:21;;;;;;;;;;;;;;;;;;4937776;29;19914;-83
2023/02/01 12:05:49;;;;;;;;;;;;;;;;;;4939018;29;19911;-91
2023/02/01 12:08:29;;;;;;;;;;;;;;;;;;4938205;29;20378;-90
2023/02/01 12:11:01;;;;;;;;;;;;;;;;;;4941306;29;19921;-92
2023/02/01 12:13:45;;;;;;;;;;;;;;;;;;4938420;29;19915;-89
2023/02/01 12:16:10;;;;;;;;;;;;;;;;;;4939366;29;19911;-90
2023/02/01 12:18:48;;;;;;;;;;;;;;;;;;4938236;29;20009;-91
2023/02/01 12:21:32;;;;;;;;;;;;;;;;;;4938238;29;20282;-91
2023/02/01 12:24:06;;;;;;;;;;;;;;;;;;4939470;29;19921;-91
2023/02/01 12:26:31;;;;;;;;;;;;;;;;;;4939151;29;19911;-91
2023/02/01 12:28:59;;;;;;;;;;;;;;;;;;4938614;29;19921;-93
2023/02/01 12:31:45;;;;;;;;;;;;;;;;;;4937653;29;19914;-93
2023/02/01 12:34:29;;;;;;;;;;;;;;;;;;4937240;29;19926;-86
2023/02/01 12:37:09;;;;;;;;;;;;;;;;;;4937097;29;19914;-86
2023/02/01 18:05:20;;;;;;;;;;;;;;;;;;5053768;23;19970;-94
2023/02/01 18:07:46;;;;;;;;;;;;;;;;;;4923017;29;20018;-91
2023/02/01 18:10:11;;;;;;;;;;;;;;;;;;4920647;29;19943;-94
2023/02/01 18:12:37;;;;;;;;;;;;;;;;;;4910552;29;20004;-94
2023/02/01 18:15:12;;;;;;;;;;;;;;;;;;4902177;29;19926;-94
2023/02/01 18:17:37;;;;;;;;;;;;;;;;;;4900591;29;19915;-92
2023/02/01 18:20:03;;;;;;;;;;;;;;;;;;4899854;29;20389;-95
2023/02/01 18:22:30;;;;;;;;;;;;;;;;;;4898525;29;19915;-91
2023/02/01 18:24:55;;;;;;;;;;;;;;;;;;4916615;29;19923;-94
2023/02/01 18:27:20;;;;;;;;;;;;;;;;;;4902850;29;19916;-94
2023/02/01 18:29:46;;;;;;;;;;;;;;;;;;4902863;29;20354;-93
2023/02/01 18:32:11;;;;;;;;;;;;;;;;;;4905096;29;19959;-93
2023/02/01 18:34:37;;;;;;;;;;;;;;;;;;4902208;29;19915;-92
2023/02/01 18:37:02;;;;;;;;;;;;;;;;;;4902273;29;20400;-93
2023/02/01 18:39:27;;;;;;;;;;;;;;;;;;4902022;29;19915;-93
2023/02/01 18:41:53;;;;;;;;;;;;;;;;;;4902727;29;19922;-94
2023/02/01 18:44:18;;;;;;;;;;;;;;;;;;4903710;29;19920;-93
2023/02/01 18:46:43;;;;;;;;;;;;;;;;;;4902867;29;19922;-91
2023/02/01 18:49:12;;;;;;;;;;;;;;;;;;4902181;29;20010;-93
2023/02/01 18:51:38;;;;;;;;;;;;;;;;;;4902015;29;19919;-94
2023/02/01 18:54:07;;;;;;;;;;;;;;;;;;4902017;29;20384;-94
2023/02/01 18:56:38;;;;;;;;;;;;;;;;;;4902290;29;19919;-91
2023/02/01 18:59:04;;;;;;;;;;;;;;;;;;4902112;29;19922;-93
2023/02/01 19:01:29;;;;;;;;;;;;;;;;;;4901396;29;19919;-94
2023/02/01 19:03:54;;;;;;;;;;;;;;;;;;4901748;29;19954;-91
2023/02/01 19:06:20;;;;;;;;;;;;;;;;;;4901679;29;20293;-91
2023/02/01 19:08:49;;;;;;;;;;;;;;;;;;4901784;29;19915;-92
2023/02/01 19:11:15;;;;;;;;;;;;;;;;;;4901141;29;20326;-92
2023/02/01 19:13:40;;;;;;;;;;;;;;;;;;4901572;29;19969;-93
2023/02/01 19:16:09;;;;;;;;;;;;;;;;;;4902610;29;19911;-92
2023/02/01 19:18:36;;;;;;;;;;;;;;;;;;4901731;29;20393;-92
2023/02/01 19:21:12;;;;;;;;;;;;;;;;;;4901825;29;19923;-92
2023/02/01 19:23:38;;;;;;;;;;;;;;;;;;4901456;29;19912;-92
2023/02/01 19:26:09;;;;;;;;;;;;;;;;;;4900899;29;20046;-91
2023/02/01 19:28:34;;;;;;;;;;;;;;;;;;4903239;29;19911;-92
2023/02/01 19:31:04;;;;;;;;;;;;;;;;;;4901287;29;19922;-92
2023/02/01 19:33:29;;;;;;;;;;;;;;;;;;4901289;29;19915;-92
2023/02/01 19:35:58;;;;;;;;;;;;;;;;;;4900271;29;20389;-92
2023/02/01 19:38:24;;;;;;;;;;;;;;;;;;4901107;29;20335;-92
2023/02/01 19:40:49;;;;;;;;;;;;;;;;;;4900824;29;19926;-92
2023/02/01 19:43:15;;;;;;;;;;;;;;;;;;4901230;29;19916;-93
2023/02/01 19:45:42;;;;;;;;;;;;;;;;;;4900978;29;19916;-91
2023/02/01 19:48:07;;;;;;;;;;;;;;;;;;4901990;29;19922;-90
2023/02/01 19:50:33;;;;;;;;;;;;;;;;;;4903243;29;19916;-91
2023/02/01 19:52:58;;;;;;;;;;;;;;;;;;4902725;29;19958;-91
2023/02/01 19:55:24;;;;;;;;;;;;;;;;;;4902447;29;19916;-92
2023/02/01 19:57:49;;;;;;;;;;;;;;;;;;4887661;29;19923;-93
2023/02/01 20:00:15;;;;;;;;;;;;;;;;;;4892278;29;19968;-92
2023/02/01 20:02:41;;;;;;;;;;;;;;;;;;4882921;29;19915;-92
2023/02/01 20:05:10;;;;;;;;;;;;;;;;;;4884961;29;20392;-92
2023/02/01 20:07:35;;;;;;;;;;;;;;;;;;4848243;29;20003;-93
2023/02/01 20:10:02;;;;;;;;;;;;;;;;;;4847932;29;20044;-95
2023/02/01 20:12:27;;;;;;;;;;;;;;;;;;4847707;29;19974;-95
2023/02/01 20:14:55;;;;;;;;;;;;;;;;;;4849011;29;19916;-96
2023/02/01 20:17:21;;;;;;;;;;;;;;;;;;4849080;29;20300;-91
2023/02/01 20:19:46;;;;;;;;;;;;;;;;;;4847811;29;19922;-95
2023/02/01 20:22:12;;;;;;;;;;;;;;;;;;4848788;29;19916;-92
2023/02/01 20:24:38;;;;;;;;;;;;;;;;;;4847312;29;19916;-94
2023/02/01 20:27:05;;;;;;;;;;;;;;;;;;4847747;29;19966;-92
2023/02/01 20:29:30;;;;;;;;;;;;;;;;;;4848026;29;20457;-96
2023/02/01 20:31:55;;;;;;;;;;;;;;;;;;4865203;29;19999;-95
2023/02/01 20:34:21;;;;;;;;;;;;;;;;;;4865583;23;19920;-94
2023/02/01 20:36:47;;;;;;;;;;;;;;;;;;4939712;29;19923;-91
2023/02/01 20:39:12;;;;;;;;;;;;;;;;;;4939523;29;19918;-96
2023/02/01 20:41:38;;;;;;;;;;;;;;;;;;4935975;29;19971;-91
2023/02/01 20:44:03;;;;;;;;;;;;;;;;;;4904178;29;19926;-90
2023/02/01 20:46:29;;;;;;;;;;;;;;;;;;4904296;29;19922;-91
2023/02/01 20:48:54;;;;;;;;;;;;;;;;;;4904416;29;19958;-91
2023/02/01 20:51:20;;;;;;;;;;;;;;;;;;4906215;29;19915;-91
2023/02/01 20:53:47;;;;;;;;;;;;;;;;;;4906498;29;19915;-90
2023/02/01 20:56:13;;;;;;;;;;;;;;;;;;4906561;29;19923;-92
2023/02/01 20:58:38;;;;;;;;;;;;;;;;;;4905954;29;20387;-95
2023/02/01 21:01:04;;;;;;;;;;;;;;;;;;4926389;29;19950;-91
2023/02/01 21:03:29;;;;;;;;;;;;;;;;;;4930064;29;19958;-92
2023/02/01 21:05:56;;;;;;;;;;;;;;;;;;4902060;29;20465;-93
2023/02/01 21:08:34;;;;;;;;;;;;;;;;;;5095769;27;20015;-93
2023/02/01 21:11:02;;;;;;;;;;;;;;;;;;5091247;28;20387;-90
2023/02/01 21:13:33;;;;;;;;;;;;;;;;;;5100240;28;20355;-89
2023/02/01 21:15:59;;;;;;;;;;;;;;;;;;5105825;28;19916;-89
2023/02/01 21:18:24;;;;;;;;;;;;;;;;;;5120341;22;19960;-92
2023/02/01 21:20:50;;;;;;;;;;;;;;;;;;5086681;22;19972;-94
2023/02/01 21:23:15;;;;;;;;;;;;;;;;;;5080819;28;19927;-90
2023/02/01 21:25:41;;;;;;;;;;;;;;;;;;5075089;28;19923;-95
2023/02/01 21:28:07;;;;;;;;;;;;;;;;;;5071638;28;19917;-94
2023/02/01 21:30:35;;;;;;;;;;;;;;;;;;5083248;22;19956;-93
2023/02/01 21:33:01;;;;;;;;;;;;;;;;;;5081933;28;20015;-90
2023/02/01 21:35:26;;;;;;;;;;;;;;;;;;5075256;28;19966;-96
2023/02/01 21:37:51;;;;;;;;;;;;;;;;;;5070727;28;20359;-93
2023/02/01 21:40:17;;;;;;;;;;;;;;;;;;5071459;28;19927;-91
2023/02/01 21:42:44;;;;;;;;;;;;;;;;;;5058512;28;20377;-93
2023/02/01 21:45:10;;;;;;;;;;;;;;;;;;5050485;28;19917;-94
2023/02/01 21:47:37;;;;;;;;;;;;;;;;;;5051864;28;19963;-93
2023/02/01 21:50:06;;;;;;;;;;;;;;;;;;5066285;28;20027;-96
2023/02/01 21:52:32;;;;;;;;;;;;;;;;;;5064594;28;19917;-96
2023/02/01 21:54:58;;;;;;;;;;;;;;;;;;5062272;28;19921;-88
2023/02/01 21:57:27;;;;;;;;;;;;;;;;;;5067369;28;19916;-92
2023/02/01 21:59:53;;;;;;;;;;;;;;;;;;5062217;28;19917;-94
2023/02/01 22:02:18;;;;;;;;;;;;;;;;;;5058411;28;19921;-89
2023/02/01 22:04:43;;;;;;;;;;;;;;;;;;5056065;28;19966;-90
2023/02/01 22:07:10;;;;;;;;;;;;;;;;;;5055088;28;20359;-92
2023/02/01 22:09:35;;;;;;;;;;;;;;;;;;5054868;28;20290;-92
2023/02/01 22:12:00;;;;;;;;;;;;;;;;;;5050408;28;20003;-88
2023/02/01 22:14:26;;;;;;;;;;;;;;;;;;5052938;28;20078;-92
2023/02/01 22:16:51;;;;;;;;;;;;;;;;;;5050152;28;19963;-91
2023/02/01 22:19:17;;;;;;;;;;;;;;;;;;5039215;28;20016;-88
2023/02/01 22:21:46;;;;;;;;;;;;;;;;;;5057654;28;20007;-89
2023/02/01 22:24:14;;;;;;;;;;;;;;;;;;5062229;28;19924;-88
2023/02/01 22:26:39;;;;;;;;;;;;;;;;;;5063983;28;20077;-90
2023/02/01 22:29:05;;;;;;;;;;;;;;;;;;5063369;28;19917;-90
2023/02/01 22:31:31;;;;;;;;;;;;;;;;;;5062282;28;19932;-89
2023/02/01 22:33:56;;;;;;;;;;;;;;;;;;5064292;28;19924;-89
2023/02/01 22:36:23;;;;;;;;;;;;;;;;;;5060853;28;19952;-89
2023/02/01 22:38:49;;;;;;;;;;;;;;;;;;5062061;28;19916;-90
2023/02/01 22:41:14;;;;;;;;;;;;;;;;;;5068019;23;19931;-88
2023/02/01 22:43:43;;;;;;;;;;;;;;;;;;5064578;28;19970;-89
2023/02/01 22:46:16;;;;;;;;;;;;;;;;;;5062391;28;20007;-89
2023/02/01 22:48:46;;;;;;;;;;;;;;;;;;5045225;22;19929;-89
2023/02/01 22:51:23;;;;;;;;;;;;;;;;;;5022175;28;20315;-89
2023/02/01 22:53:55;;;;;;;;;;;;;;;;;;5023896;28;19917;-88
2023/02/01 22:56:21;;;;;;;;;;;;;;;;;;5023302;28;20008;-89
2023/02/01 22:58:47;;;;;;;;;;;;;;;;;;5022322;28;19924;-88
2023/02/01 23:01:15;;;;;;;;;;;;;;;;;;5025303;28;19926;-88
2023/02/01 23:03:40;;;;;;;;;;;;;;;;;;5025635;28;19967;-88
2023/02/01 23:06:06;;;;;;;;;;;;;;;;;;5023566;28;19917;-88
2023/02/01 23:08:34;;;;;;;;;;;;;;;;;;5020387;28;20024;-88
2023/02/01 23:11:00;;;;;;;;;;;;;;;;;;5023103;28;19928;-88
2023/02/01 23:13:25;;;;;;;;;;;;;;;;;;5016718;28;19917;-88
2023/02/01 23:15:51;;;;;;;;;;;;;;;;;;5016466;28;19924;-89
2023/02/01 23:18:16;;;;;;;;;;;;;;;;;;5017849;28;20376;-93
2023/02/01 23:20:41;;;;;;;;;;;;;;;;;;5015623;28;19918;-90
2023/02/01 23:23:07;;;;;;;;;;;;;;;;;;5016770;28;20004;-89
2023/02/01 23:25:32;;;;;;;;;;;;;;;;;;5016508;28;20013;-88
2023/02/01 23:27:57;;;;;;;;;;;;;;;;;;5021125;28;19922;-88
2023/02/01 23:30:24;;;;;;;;;;;;;;;;;;5019331;28;19953;-88
2023/02/01 23:32:50;;;;;;;;;;;;;;;;;;5019244;28;19913;-88
2023/02/01 23:35:15;;;;;;;;;;;;;;;;;;5024782;28;20357;-88
2023/02/01 23:37:40;;;;;;;;;;;;;;;;;;5022613;28;19917;-88
2023/02/01 23:40:06;;;;;;;;;;;;;;;;;;5021024;28;19913;-88
2023/02/01 23:42:32;;;;;;;;;;;;;;;;;;5021359;28;19921;-88
2023/02/01 23:44:57;;;;;;;;;;;;;;;;;;5023255;28;19941;-89
2023/02/01 23:47:22;;;;;;;;;;;;;;;;;;5020208;28;19955;-89
2023/02/01 23:49:48;;;;;;;;;;;;;;;;;;5024942;28;19908;-87
